Aérodrome :
LOGIN :

S'inscrire | Disclaimer

   EN    FR    IT 

 










Légende :    VFR   VFR Marginal   IFR   IFR Intensif   IFR Très Intensif
Visi : 
Plafond : 
>= 8 km
>= 3000ft
5 à 8 km
1000 à 3000 ft
1500m à 5 km
500 à 1000 ft
800 à 1500m
200 à 500 ft
< 800m
< 200 ft
Symboles :   Orages  Brouillard  Fortes neiges  Fortes précipitations  Vent > 20 kt
SIGMETs :   Divers  Orages  Givrage  Turbulence  Onde Orograph.  Cendres Volcan.






- Altitude de l'aérodrome : 1036 ft
- Code IATA : CLJ


LRCL - Cluj-Napoca International

DERNIER METAR :
  • 180630Z 05004KT CAVOK 10/04 Q1016

METARs EXPIRÉS :
  • 180600Z 04007KT CAVOK 09/04 Q1015
  • 180530Z 04006KT CAVOK 10/04 Q1015
  • 180500Z 08005KT CAVOK 09/05 Q1015
  • 180430Z 05009KT CAVOK 09/05 Q1015
  • 180400Z 08008KT CAVOK 09/05 Q1015

TAF TAF LRCL
Valide du 18 à 06h jusqu'au 18 à 15h UTC


180500Z 1806/1815 09008KT CAVOK
PROB40
TEMPO 1813/1815 5000 -RA



MET'MAP, la Météo Aéronautique d'un coup d'oeil ! - Copyright ORBIFLY Décembre 2007 - Disclaimer

ORBIFLY MET'MAP TEAM :

Programmation & Développement : Alexandra Zaïnal
Conception & Développement : Baudouin d'Aumeries
Co-Programmation & Développement : Marc-Olivier Méhu
Soutien technique & logistique : Manuel Goepfert

Contact : metmap@orbifly.com




SOURCES & CREDITS :

   NOAA